Terminal Aerodrome Forecast
Issued by NWS

Home | Current Version | Previous Version | Text Only | Print | Product List | Glossary On
Versions: 1 2 3 4 5 6 7 8 9 10 11 12 13 14 15 16 17 18 19 20 21 22 23 24 25 26 27 28 29 30 31 32 33 34 35 36 37 38 39 40 41 42 43 44 45 46 47 48 49 50
000
FTUS43 KMKX 240111 AAD
TAFENW
TAF AMD
KENW 240111Z 2401/2424 19005KT 6SM -SHRA VCTS SCT025CB BKN045
      TEMPO 2401/2402 4SM -TSRA BR OVC025CB
     FM240400 18004KT P6SM VCSH BKN050
     FM240800 20004KT P6SM -SHRA VCTS SCT035CB OVC050
     FM241200 21006KT 6SM BR OVC060
     FM241800 23013G22KT P6SM BKN200=

USA.gov is the U.S. government's official web portal to all federal, state and local government web resources and services.